SKSMSKCG

Guest
Details From SKSM - SIMON BOLIVAR
To SKCG - RAFAEL NUNEZ
Flight Number -
Tags generated
Created
Modified
Stats Distance 86 nm / 159 km
Max Altitude 9,400 ft / 2,865 m
Waypoints 3
Social Downloads 0
Likes 0
Share VATSIM

Download

Looking for another format? Having issues loading an existing format? Contact us
Advertisement - Login to hide

Notes

Basic altitude profile: - Ascent Rate: 2500ft/min - Ascent Speed: 250kts - Cruise Altitude: 7000ft - Cruise Speed: 420kts - Descent Rate: 1500ft/min - Descent Speed: 250kts Options: - Use NATs: yes - Use PACOTS: yes - Use low airways: yes - Use high airways: yes

Route

SKSM BAQ SKCG

ID Type Via Altitude (ft/m) Position (lat/lon) Dist (leg/tot) Name
O SKSM APT - 0 / 0 11.11965 / -74.23065 - / 0 nm SIMON BOLIVAR
BAQ VOR - 9,400 / 2,865 10.79667 / -74.86028 41 / 41 nm BARRANQUILLA VOR-DME
O SKCG APT - 0 / 0 10.44238 / -75.51296 44 / 85 nm RAFAEL NUNEZ

Altitude Profile

Advertisement - Login to hide

SKSM

Details ICAO SKSM (SMR)
Name Simon Bolivar International
Region Colombia
Timezone Unknown
Stats Elevation 21 ft / 6 m (AMSL)
Location 11.119600° -74.230600°
Runways 1
Magnetic Variation 8.206° W

METAR

SKSM 192100Z 20006KT 9999 FEW020 BKN070 30/25 A2976

Decode

TAF

Not found

Departure Runways

ID Width Length Bearing (true/mag) Surface Threshold Overrun Markings Lighting
01 131 ft / 40 m 5,583 ft / 1,702 m 358.69° / 6.89° ASPHALT 0 ft / 0 m 236 ft / 72 m APP
19 131 ft / 40 m 5,583 ft / 1,702 m 178.69° / 186.89° ASPHALT 0 ft / 0 m 138 ft / 42 m APP

SKCG

Details ICAO SKCG (CTG)
Name Rafael Nunez Airport
Region Colombia
Timezone America/Bogota (UTC-5.0)
Stats Elevation 1 ft / 0 m (AMSL)
Location 10.442100° -75.512900°
Runways 1
Magnetic Variation 7.315° W

METAR

SKCG 192200Z 36006KT 9999 SCT015 SCT200 27/25 A2975

Decode

TAF

Not found

Destination Runways

ID Width Length Bearing (true/mag) Surface Threshold Overrun Markings Lighting
01 148 ft / 45 m 8,341 ft / 2,542 m 2.33° / 9.64° ASPHALT 0 ft / 0 m 0 ft / 0 m PREC-APP CENTERLINE EDGE THRESHOLD MALSF
19 148 ft / 45 m 8,341 ft / 2,542 m 182.33° / 189.64° ASPHALT 0 ft / 0 m 0 ft / 0 m PREC-APP CENTERLINE EDGE THRESHOLD MALSF

Popular Alternatives